Tiempo atmosférico en la estación meteorológica de Aranda De Duero, Burgos (790 m.)



Fecha
DESCASC
Temp. máxima en grados centígrados (hora)
DESCASC
Temp. mínima en grados centígrados (hora)
DESCASC
Temp. media en grados centígrados
DESCASC
Racha de viento máxima en m/sg (hora)
DESCASC
Velocidad máxima media en intervalos de 10 minutos(hora)
DESCASC
Precipitaciones diarias en mm
DESCASC
Precipitaciones de 00:00 a 06:00 en mm
DESCASC
Precipitaciones de 06:00 a 12:00 en mm
DESCASC
Precipitaciones de 12:00 a 18:00 en mm
DESCASC
Precipitaciones de 18:00 a 24:00 en mm
DESCASC
20-10-2019 12.4 (00:00) 6.1 (23:59) 9.2 10 (02:40) 4.17 (06:00) 1.6 1 0.2 0.2 0.2
19-10-2019 17.9 (16:20) 10.3 (08:20) 14.1 12.78 (19:00) 5 (19:00) 0.6 0 0 0 0.6
18-10-2019 17.4 (15:20) 12.8 (22:40) 15.1 8.89 (04:10) 3.06 (04:10) 4.6 4.4 0.2 0 0
17-10-2019 18.4 (18:10) 9.9 (00:00) 14.1 10 (16:10) 4.17 (16:10) 6 2 2.8 0.4 0.8
16-10-2019 18.5 (16:40) 5.5 (00:00) 12 9.72 (12:50) 4.44 (11:30) 0 0 0 0 0
15-10-2019 14.7 (16:40) 4.8 (00:00) 9.8 10.83 (16:10) 3.89 (16:10) 0 0 0 0 0
14-10-2019 19.8 (11:20) 7.4 (00:00) 13.6 18.89 (11:00) 6.39 (11:10) 1.4 0 0 0.4 1
13-10-2019 25.5 (14:30) 12.9 (00:00) 19.2 13.61 (16:10) 5.28 (17:40) 0 0 0 0 0
12-10-2019 27.9 (14:30) 14.4 (00:00) 21.1 16.39 (15:10) 7.5 (15:10) 0 0 0 0 0
11-10-2019 26.9 (16:20) 7.3 (00:00) 17.1 6.67 (20:20) 2.78 (10:30) 0 0 0 0 0
10-10-2019 22.9 (18:30) 6.1 (00:00) 14.5 9.72 (11:20) 5.56 (11:20) 0 0 0 0 0
09-10-2019 20.5 (16:10) 8.8 (00:00) 14.7 6.39 (14:10) 2.78 (17:00) 0 0 0 0 0
08-10-2019 28.4 (17:00) 6.2 (00:00) 17.3 6.67 (15:00) 2.78 (16:10) 0 0 0 0 0
07-10-2019 23.6 (17:50) 5.8 (00:00) 14.7 4.72 (17:40) 2.5 (18:30) 0 0 0 0 0
06-10-2019 22.8 (17:40) 5.2 (00:00) 14 5.28 (18:30) 1.94 (19:40) 0 0 0 0 0
05-10-2019 24.2 (16:50) 5.8 (00:00) 15 6.11 (16:10) 2.22 (14:30) 0 0 0 0 0
04-10-2019 23.9 (17:50) 5.7 (00:00) 14.8 7.5 (17:40) 2.5 (14:10) 0 0 0 0 0
03-10-2019 22.8 (17:10) 4.4 (00:00) 13.6 8.33 (14:50) 2.22 (13:50) 0 0 0 0 0
02-10-2019 18.9 (16:10) 8.1 (00:00) 13.5 7.22 (17:00) 3.06 (17:00) 0 0 0 0 0
01-10-2019 23.2 (17:20) 8.7 (00:00) 16 9.72 (12:30) 4.17 (12:30) 0 0 0 0 0
30-09-2019 26.5 (16:20) 7.9 (00:00) 17.2 5 (16:30) 2.22 (16:30) 0 0 0 0 0
29-09-2019 26.9 (16:10) 6.1 (00:00) 16.5 8.06 (13:50) 3.06 (13:50) 0 0 0 0 0
28-09-2019 24.7 (17:40) 7.4 (00:00) 16.1 4.72 (14:50) 1.67 (14:40) 0 0 0 0 0
27-09-2019 24.7 (16:50) 5.3 (00:00) 15 7.5 (16:50) 2.78 (16:20) 0 0 0 0 0
26-09-2019 25.5 (17:30) 8.4 (00:00) 16.9 8.33 (15:50) 3.06 (15:40) 0 0 0 0 0
25-09-2019 20.2 (17:00) 9.1 (00:00) 14.7 6.94 (00:10) 2.5 (10:10) 0 0 0 0 0
24-09-2019 22.1 (18:20) 7.9 (00:00) 15 11.94 (13:40) 5 (13:30) 0 0 0 0 0
23-09-2019 21.4 (18:20) 6.8 (00:00) 14.1 6.67 (16:10) 2.22 (17:20) 0 0 0 0 0
22-09-2019 19.5 (16:40) 10.5 (00:00) 15 10.28 (04:20) 3.61 (10:50) 1.8 1.4 0.4 0 0

Gráficas

Temp. máximas Temp. mínimas Temp. medias Precipitaciones Rachas de viento máximas Velocidades máximas media en intervalos de 10 minutos

Datos horarios

Fecha y hora oficial Temperatura (ºC) Velocidad del viento (km/h) Dirección del viento Racha (km/h) Dirección de racha Precipitación (mm) Presión (hPa) Tendencia (hPa) Humedad (%)
2019-10-21 23:00:00 6.3 0 Calma 9 Noroeste 0 928.3 0.4 85
2019-10-21 22:00:00 6.2 2 Noroeste 6 Noroeste 0.8 928.2 2 84
2019-10-21 21:00:00 6.2 2 Sur 19 Sur 7.8 928.3 2.5 83
2019-10-21 20:00:00 8.5 9 Sur 28 Sudoeste 0.2 927.9 2.1 67
2019-10-21 19:00:00 10.7 0 Calma 8 Noroeste 0 926.2 0.1 64
2019-10-21 18:00:00 11.7 5 Noroeste 12 Norte 0 925.8 -0.7 51
2019-10-21 17:00:00 12.2 8 Noroeste 16 Noroeste 0 925.8 -1.1 48
2019-10-21 16:00:00 12.6 6 Noroeste 15 Noroeste 0 926.1 -1.2 47
2019-10-21 15:00:00 11.6 3 Noroeste 9 Noroeste 0 926.5 -1 53
2019-10-21 14:00:00 10.6 5 Noroeste 11 Oeste 0 926.9 -0.5 55
2019-10-21 13:00:00 10.5 3 Sudeste 11 Este 0 927.3 0.1 58
2019-10-21 12:00:00 9.4 5 Sudeste 15 Este 0 927.5 0.7 70
2019-10-21 11:00:00 8.3 5 Nordeste 11 Norte 0 927.4 0.9 77
2019-10-21 10:00:00 6 2 Este 6 Sudeste 0 927.2 0.9 87
2019-10-21 09:00:00 5.4 0 Calma 6 Este 0 926.8 0.8 87
2019-10-21 08:00:00 4.9 0 Calma 10 Sudeste 0 926.5 0.6 87
2019-10-21 07:00:00 4.3 5 Este 9 Este 0 926.3 0.6 87
2019-10-21 06:00:00 2.7 2 Sudeste 4 Sudeste 0 926 0.4 86
2019-10-21 05:00:00 2.2 0 Calma 6 Este 0 925.9 0.5 86
2019-10-21 04:00:00 2.3 2 Este 4 Sudeste 0 925.7 0.2 85
2019-10-21 03:00:00 3.3 2 Este 6 Sudeste 0 925.6 0.3 85
2019-10-21 02:00:00 3.9 3 Este 5 Este 0 925.4 0.4 84
2019-10-21 01:00:00 5.1 0 Calma 5 Sudoeste 0 925.5 1 83
2019-10-21 00:00:00 6.1 3 Sudoeste 5 Sudoeste 0 925.3 1.2 84
2019-10-20 23:00:00 6.5 0 Calma 5 Sudeste 0 925 1.8 83
2019-10-20 22:00:00 6.7 2 Sudeste 4 Sudeste 0 924.5 2 83
2019-10-20 21:00:00 6.9 0 Calma 6 Sudoeste 0 924.1 2.6 82
2019-10-20 20:00:00 7 2 Sudoeste 17 Noroeste 0.2 923.2 2.3 80
2019-10-20 19:00:00 7.5 10 Noroeste 27 Noroeste 0 922.5 2.3 73
2019-10-20 18:00:00 8.2 6 Oeste 23 Noroeste 0 921.5 1.9 72
2019-10-20 17:00:00 8.3 9 Noroeste 29 Noroeste 0 920.9 1.6 70
2019-10-20 16:00:00 8.1 12 Noroeste 31 Noroeste 0 920.2 1.3 73
2019-10-20 15:00:00 8 10 Noroeste 34 Noroeste 0 919.6 1 78
2019-10-20 14:00:00 9.2 10 Noroeste 20 Norte 0.2 919.3 1.1 75
2019-10-20 13:00:00 9.6 5 Oeste 17 Oeste 0 918.9 1.5 75
2019-10-20 12:00:00 8.9 5 Sudoeste 14 Sudoeste 0.2 918.6 1.9 81
2019-10-20 11:00:00 8.6 5 Oeste 23 Sudoeste 0 918.2 2.2 80
2019-10-20 10:00:00 9.3 12 Sudoeste 28 Sudoeste 0 917.4 1.5 74
2019-10-20 09:00:00 7.9 8 Sudoeste 21 Sudoeste 0 916.7 1.8 81
2019-10-20 08:00:00 7.8 5 Sudoeste 24 Sudoeste 0 916 1.3 80
2019-10-20 07:00:00 8.1 8 Sudoeste 27 Sudoeste 0 915.9 1.8 80
2019-10-20 06:00:00 8.4 15 Sudoeste 33 Sudoeste 0 914.9 0.8 78
2019-10-20 05:00:00 9.1 11 Sudoeste 24 Sudoeste 0 914.7 0.8 76
2019-10-20 04:00:00 8.9 9 Sudoeste 32 Sudoeste 0 914.1 0.4 78
2019-10-20 03:00:00 9.8 8 Oeste 36 Sudoeste 0 914.1 1.1 78
2019-10-20 02:00:00 11.3 6 Sudoeste 17 Sudoeste 0.2 913.9 -0.1 82
2019-10-20 01:00:00 11.7 5 Oeste 15 Oeste 0.8 913.7 -0.2 82
2019-10-20 00:00:00 12.4 3 Norte 15 Sudoeste 0 913 -1.7 79
2019-10-19 23:00:00 12.8 9 Sudoeste 22 Sudoeste 0 914 -0.6 74
2019-10-19 22:00:00 12.9 4 Este 28 Sudoeste 0 913.9 -1 76
2019-10-19 21:00:00 13 10 Sudoeste 32 Sudoeste 0.4 914.7 0.5 74
2019-10-19 20:00:00 13 5 Norte 33 Sudoeste 0.2 914.6 -0.5 80
2019-10-19 19:00:00 15.1 18 Sudoeste 46 Sudoeste 0 914.9 -1 66
2019-10-19 18:00:00 16.5 6 Sur 21 Sur 0 914.2 -2.6 49
2019-10-19 17:00:00 17 4 Sur 31 Sudoeste 0 915.1 -2.9 44
2019-10-19 16:00:00 17 6 Sur 31 Sudoeste 0 915.9 -2.6 42
2019-10-19 15:00:00 16.9 11 Sudoeste 31 Sudoeste 0 916.8 -2.7 45
2019-10-19 14:00:00 15.4 4 Sudoeste 18 Sudoeste 0 918 -1.7 53
2019-10-19 13:00:00 15 4 Sur 19 Oeste 0 918.5 -1.5 55
2019-10-19 12:00:00 13.5 6 Sudoeste 18 Sudoeste 0 919.5 -0.5 60
2019-10-19 11:00:00 12.9 6 Sur 18 Sudoeste 0 919.7 -0.4 63
2019-10-19 10:00:00 10.8 0 Calma 5 Sudeste 0 920 -0.6 78
2019-10-19 09:00:00 10.3 2 Sudeste 9 Sudoeste 0 920 -1 78
2019-10-19 08:00:00 10.5 4 Sudoeste 13 Sudoeste 0 920.1 -1.4 78
2019-10-19 07:00:00 11 5 Sudoeste 14 Sudoeste 0 920.6 -1.2 77
2019-10-19 06:00:00 11.5 7 Sudoeste 20 Sudoeste 0 921 -0.9 76
2019-10-19 05:00:00 11.5 3 Sudoeste 7 Sudoeste 0 921.5 -1 78
2019-10-19 04:00:00 11.4 0 Calma 4 Sudoeste 0 921.8 -1.3 76
2019-10-19 03:00:00 11.5 0 Calma 4 Este 0 921.9 -1.2 75
2019-10-19 02:00:00 12 0 Calma 10 Oeste 0 922.5 -1 73
2019-10-19 01:00:00 12.5 3 Oeste 10 Oeste 0 923.1 -0.5 74
2019-10-19 00:00:00 12.8 4 Oeste 10 Oeste 0 923.1 -0.7 73
2019-10-18 23:00:00 12.8 0 Calma 6 Sudoeste 0 923.5 -0.2 78
2019-10-18 22:00:00 13.1 0 Calma 4 Oeste 0 923.6 0.1 78
2019-10-18 21:00:00 13.7 0 Calma 4 Sudoeste 0 923.8 -0.3 74
2019-10-18 20:00:00 14.1 2 Oeste 11 Noroeste 0 923.7 -0.8 68
2019-10-18 19:00:00 15.3 4 Oeste 14 Oeste 0 923.5 -1.6 65
2019-10-18 18:00:00 16.2 4 Oeste 25 Oeste 0 924.1 -1.5 62
2019-10-18 17:00:00 17 9 Sudoeste 27 Oeste 0 924.5 -1.8 61
2019-10-18 16:00:00 17 9 Oeste 32 Oeste 0 925.1 -1.7 62
2019-10-18 15:00:00 16.8 9 Sudoeste 30 Oeste 0 925.6 -1.4 65
2019-10-18 14:00:00 15.7 5 Oeste 16 Oeste 0 926.3 -0.7 70
2019-10-18 13:00:00 14.5 7 Sudoeste 17 Oeste 0 926.8 0.1 75
2019-10-18 12:00:00 13.7 4 Sudoeste 14 Oeste 0 927 1.1 78
2019-10-18 11:00:00 13 6 Sudoeste 22 Oeste 0 927 1.3 80
2019-10-18 10:00:00 13.3 3 Oeste 13 Oeste 0 926.7 1.2 84
2019-10-18 09:00:00 13.4 2 Oeste 17 Oeste 0 925.9 0.6 85
2019-10-18 08:00:00 13.6 7 Sudoeste 21 Oeste 0 925.7 0.6 85
2019-10-18 07:00:00 14 3 Sudoeste 12 Oeste 0.2 925.5 0.2 86
2019-10-18 06:00:00 14 5 Oeste 29 Oeste 0.6 925.3 -0.3 85
2019-10-18 05:00:00 14.3 8 Sudoeste 32 Sudoeste 0.2 925.1 -0.9 84
2019-10-18 04:00:00 14.1 10 Sudoeste 29 Sudoeste 0 925.3 -1.1 85
2019-10-18 03:00:00 13.9 6 Sudoeste 18 Sudoeste 1.6 925.6 -0.9 86
2019-10-18 02:00:00 13.7 2 Sudoeste 19 Sudoeste 1 926 -0.5 86
2019-10-18 01:00:00 14.1 6 Sudoeste 20 Sudoeste 1 926.4 -0.2 85
2019-10-18 00:00:00 14.1 0 Calma 19 Sudoeste 0.2 926.5 -0.1 84
2019-10-17 23:00:00 14.4 6 Sudoeste 13 Sudoeste 0.2 926.5 0.4 81
2019-10-17 22:00:00 14.5 4 Sudoeste 11 Sudoeste 0 926.6 0.7 80
2019-10-17 21:00:00 14.7 3 Sur 9 Sudoeste 0.4 926.6 0.7 80
2019-10-17 20:00:00 16 2 Sudoeste 11 Oeste 0 926.1 -0.1 71
2019-10-17 19:00:00 17.7 4 Sudoeste 19 Sudoeste 0 925.9 -0.4 63
2019-10-17 18:00:00 18.2 7 Oeste 21 Oeste 0 925.9 -0.8 62
2019-10-17 17:00:00 17.3 7 Oeste 36 Sudoeste 0.4 926.2 -1.1 71
2019-10-17 16:00:00 17 10 Sudoeste 30 Sudoeste 0 926.3 -1.3 68
2019-10-17 15:00:00 17.4 9 Sudoeste 31 Oeste 0 926.7 -0.8 65
2019-10-17 14:00:00 16.4 13 Sudoeste 35 Sudoeste 0 927.3 -0.1 69
2019-10-17 13:00:00 14.9 13 Sudoeste 33 Sudoeste 0 927.6 0.6 75
2019-10-17 12:00:00 13.9 10 Sudoeste 31 Sudoeste 0 927.5 1 81
2019-10-17 11:00:00 11.8 4 Sudoeste 15 Sudoeste 0 927.4 1.1 87
2019-10-17 10:00:00 10.6 2 Este 10 Este 0.2 927 0.8 87
2019-10-17 09:00:00 10.1 4 Nordeste 10 Sudeste 0 926.5 0.5 86
2019-10-17 08:00:00 10.1 3 Sudeste 9 Sudeste 0.4 926.3 0 86
2019-10-17 07:00:00 9.9 5 Sudeste 8 Sudeste 2.2 926.2 -0.5 84
2019-10-17 06:00:00 10.3 0 Calma 4 Sudeste 1.4 926 -0.7 81
2019-10-17 05:00:00 10.7 0 Calma 5 Norte 0.6 926.3 -1 76
2019-10-17 04:00:00 10.9 0 Calma 5 Sudeste 0 926.7 -0.8 69
2019-10-17 03:00:00 10.9 5 Sudeste 12 Sudeste 0 926.7 -1.1 66
2019-10-17 02:00:00 11.3 5 Sudoeste 16 Sudoeste 0 927.3 0 63
2019-10-17 01:00:00 12.2 9 Sudoeste 18 Sudoeste 0 927.5 0.6 60
2019-10-17 00:00:00 12.7 8 Sudoeste 20 Sudoeste 0 927.8 1 57
2019-10-16 23:00:00 14.1 9 Sudoeste 19 Sudoeste 0 927.3 0.7 48
2019-10-16 22:00:00 14.2 6 Sudoeste 11 Sudoeste 0 926.9 0.8 46
2019-10-16 21:00:00 14.9 2 Sudoeste 9 Oeste 0 926.8 0.7 42
2019-10-16 20:00:00 16.1 4 Sudoeste 19 Sudoeste 0 926.6 0 33
2019-10-16 19:00:00 17.3 9 Sudoeste 26 Sudoeste 0 926.1 -0.9 26
2019-10-16 18:00:00 18.1 9 Sudoeste 28 Oeste 0 926.1 -1.7 26
2019-10-16 17:00:00 18.4 11 Sudoeste 28 Sudoeste 0 926.6 -1.6 25
2019-10-16 16:00:00 18.2 8 Oeste 31 Sudoeste 0 927 -1.6 30
2019-10-16 15:00:00 17.6 12 Sudoeste 31 Oeste 0 927.8 -1.4 37
2019-10-16 14:00:00 16.8 11 Oeste 30 Sudoeste 0 928.2 -1.2 41
2019-10-16 13:00:00 15.1 13 Sudoeste 35 Sudoeste 0 928.6 -1.2 46
2019-10-16 12:00:00 13.5 13 Sudoeste 34 Sudoeste 0 929.2 -0.1 54
2019-10-16 11:00:00 12.2 10 Sudoeste 25 Sudoeste 0 929.4 0.4 61
2019-10-16 10:00:00 10.3 11 Sudoeste 23 Sudoeste 0 929.8 1 66
2019-10-16 09:00:00 5.7 0 Calma 4 Norte 0 929.3 0.4 83
2019-10-16 08:00:00 6 0 Calma 5 Sudoeste 0 929 0 79
2019-10-16 07:00:00 6.6 0 Calma 6 Oeste 0 928.8 -0.3 77
2019-10-16 06:00:00 7.9 2 Sudoeste 12 Sudoeste 0 928.9 -0.7 72
2019-10-16 05:00:00 8.8 4 Sudoeste 15 Sudoeste 0 929 -0.7 69
2019-10-16 04:00:00 9.5 7 Sudoeste 16 Sudoeste 0 929.1 -0.7 66
2019-10-16 03:00:00 10.1 5 Sudoeste 18 Sudoeste 0 929.6 -0.1 65
2019-10-16 02:00:00 9.8 3 Sudoeste 13 Sudoeste 0 929.7 0 64
2019-10-16 01:00:00 9.2 5 Sudoeste 16 Sudoeste 0 929.8 0.1 67
2019-10-16 00:00:00 8.6 0 Calma 7 Sudoeste 0 929.7 0.2 71
2019-10-15 23:00:00 8.7 2 Sudoeste 7 Sudoeste 0 929.7 0.4 67
2019-10-15 22:00:00 9.5 0 Calma 8 Sudoeste 0 929.7 0.5 63
2019-10-15 21:00:00 10.9 3 Sudoeste 12 Sudoeste 0 929.5 0.4 55
2019-10-15 20:00:00 12.1 5 Sudoeste 14 Sudoeste 0 929.3 0.2 50
2019-10-15 19:00:00 13 7 Oeste 31 Sudoeste 0 929.2 0 44
2019-10-15 18:00:00 14.5 11 Sudoeste 33 Sudoeste 0 929.1 -0.3 38
2019-10-15 17:00:00 14.2 11 Sudoeste 39 Sudoeste 0 929.1 -1 39
2019-10-15 16:00:00 14.2 11 Oeste 36 Oeste 0 929.2 -1.2 42
2019-10-15 15:00:00 12.7 4 Oeste 34 Sudoeste 0 929.4 -1.5 54
2019-10-15 14:00:00 12 8 Sudoeste 27 Sudoeste 0 930.1 -0.3 57
2019-10-15 13:00:00 10.5 11 Sudoeste 29 Sudoeste 0 930.4 0.6 62
2019-10-15 12:00:00 9 10 Sudoeste 26 Oeste 0 930.9 1.7 67
2019-10-15 11:00:00 8.2 12 Sudoeste 27 Sudoeste 0 930.4 1.6 71
2019-10-15 10:00:00 6.9 8 Sudoeste 25 Sudoeste 0 929.8 1.5 75
2019-10-15 09:00:00 5.9 6 Sudoeste 25 Oeste 0 929.2 1.5 79
2019-10-15 08:00:00 5.2 8 Sudoeste 19 Sudoeste 0 928.8 1.2 81
2019-10-15 07:00:00 5 6 Sudoeste 21 Oeste 0 928.3 0.9 81
2019-10-15 06:00:00 4.9 8 Sudoeste 22 Sudoeste 0 927.7 0.4 81
2019-10-15 05:00:00 5.3 7 Sudoeste 31 Oeste 0 927.6 0.6 79
2019-10-15 04:00:00 5.8 10 Sudoeste 27 Oeste 0 927.4 0.9 78
2019-10-15 03:00:00 6.1 9 Sudoeste 21 Sudoeste 0 927.3 1.5 78
2019-10-15 02:00:00 6.2 8 Sudoeste 21 Oeste 0 927 1.8 77
2019-10-15 01:00:00 6.6 9 Sudoeste 35 Oeste 0 926.5 2 75
2019-10-15 00:00:00 7.4 13 Sudoeste 41 Oeste 0 925.8 1.7 74
2019-10-14 23:00:00 7.6 10 Sudoeste 35 Oeste 0 925.2 1.5 75
2019-10-14 22:00:00 8.6 13 Sudoeste 33 Sudoeste 0 924.5 1.3 76
2019-10-14 21:00:00 9 9 Sudoeste 30 Sudoeste 0 924.1 1.4 78
2019-10-14 20:00:00 9.3 15 Sudoeste 36 Sudoeste 0 923.7 2.2 79
2019-10-14 19:00:00 9.4 14 Sudoeste 37 Sudoeste 1 923.2 2.5 79
2019-10-14 18:00:00 10.1 12 Sudoeste 44 Oeste 0.4 922.7 1.8 77
2019-10-14 17:00:00 14.2 16 Oeste 55 Oeste 0 921.5 -0.2 52
2019-10-14 16:00:00 17 15 Sudoeste 49 Oeste 0 920.7 -1.3 38
2019-10-14 15:00:00 17.6 13 Sudoeste 40 Sudoeste 0 920.9 -0.9 46
2019-10-14 14:00:00 16.5 17 Sudoeste 43 Oeste 0 921.7 1.7 52
2019-10-14 13:00:00 14.8 10 Sudoeste 44 Sudoeste 0 922 2.2 60
2019-10-14 12:00:00 14.2 19 Sudoeste 62 Oeste 0 921.8 2.6 64
2019-10-14 11:00:00 18.9 22 Sudoeste 68 Sudoeste 0 920 1.1 39
2019-10-14 10:00:00 18.9 20 Sudoeste 52 Sudoeste 0 919.8 1.2 44
2019-10-14 09:00:00 18.1 10 Sudoeste 37 Sudoeste 0 919.2 0 46
2019-10-14 08:00:00 17.9 3 Sur 19 Sudeste 0 918.9 -0.4 42
2019-10-14 07:00:00 16.8 3 Sudeste 16 Sudeste 0 918.6 -1.3 47
2019-10-14 06:00:00 17.3 2 Sur 15 Sudeste 0 919.2 -1.9 47
2019-10-14 05:00:00 14.2 8 Este 21 Sudeste 0 919.3 -2.5 55
2019-10-14 04:00:00 13.4 11 Sudeste 20 Sudeste 0 919.9 -2.7 57
2019-10-14 03:00:00 12.1 6 Este 13 Este 0 921.1 -2.2 61
2019-10-14 02:00:00 11.6 3 Este 10 Este 0 921.8 -1.8 63
2019-10-14 01:00:00 12.4 3 Este 9 Este 0 922.6 -1.1 57
2019-10-14 00:00:00 12.9 3 Este 9 Este 0 923.3 -0.4 53
2019-10-13 23:00:00 15.5 3 Este 15 Sudoeste 0 923.6 0.3 42
2019-10-13 22:00:00 15.9 3 Sur 9 Sur 0 923.7 0.7 40
2019-10-13 21:00:00 18 2 Sur 17 Sur 0 923.7 0.7 35
2019-10-13 20:00:00 20.4 5 Sur 30 Sur 0 923.3 0.1 31
2019-10-13 19:00:00 23.3 14 Sudoeste 42 Sudoeste 0 923 -0.4 20
2019-10-13 18:00:00 24.5 19 Sudoeste 46 Sudoeste 0 923 -0.5 19
2019-10-13 17:00:00 25.2 13 Sudoeste 49 Sudoeste 0 923.2 -0.8 19
2019-10-13 16:00:00 25.2 18 Sudoeste 46 Sudoeste 0 923.4 -1.2 18
2019-10-13 15:00:00 25.2 17 Sudoeste 41 Sudoeste 0 923.5 -1.7 16
2019-10-13 14:00:00 24.2 11 Sudoeste 31 Oeste 0 924 -1.4 25
2019-10-13 13:00:00 21.1 4 Oeste 19 Oeste 0 924.6 -0.8 42
2019-10-13 12:00:00 19.5 6 Sudoeste 18 Sudoeste 0 925.2 0.8 51
2019-10-13 11:00:00 19.6 2 Oeste 13 Noroeste 0 925.4 1.5 51
2019-10-13 10:00:00 18.3 3 Oeste 11 Oeste 0 925.4 2.1 55
2019-10-13 09:00:00 15.8 0 Calma 12 Sur 0 924.4 0.8 64
2019-10-13 08:00:00 16.7 3 Sur 13 Sur 0 923.9 0.3 60
2019-10-13 07:00:00 17.1 2 Sur 17 Sur 0 923.3 -0.8 58
2019-10-13 06:00:00 17.4 5 Sur 24 Sur 0 923.6 -0.7 52
2019-10-13 05:00:00 17 5 Sur 18 Sudoeste 0 923.6 -1 46
2019-10-13 04:00:00 17 3 Sur 6 Sudoeste 0 924.1 -0.9 44
2019-10-13 03:00:00 18.2 2 Sur 22 Sur 0 924.3 -0.7 41
2019-10-13 02:00:00 19 5 Sur 26 Sur 0 924.6 -0.3 39
2019-10-13 01:00:00 18.8 7 Sur 40 Sur 0 925 0.5 39
2019-10-13 00:00:00 19.6 12 Sur 40 Sur 0 925 0.5 37
2019-10-12 23:00:00 20 6 Sur 22 Sur 0 924.9 0.8 39
2019-10-12 22:00:00 21 4 Sur 24 Sudoeste 0 924.5 0.6 30
2019-10-12 21:00:00 21.8 7 Sur 26 Sur 0 924.5 0.8 35
2019-10-12 20:00:00 22.6 5 Sur 25 Sur 0 924.1 0.1 34
2019-10-12 19:00:00 24.5 8 Sur 44 Sudoeste 0 923.9 -0.6 29
2019-10-12 18:00:00 26.3 16 Sudoeste 42 Sudoeste 0 923.7 -1.2 22
2019-10-12 17:00:00 27.3 16 Sudoeste 50 Sudoeste 0 924 -1.4 18
2019-10-12 16:00:00 26 19 Sudoeste 59 Sudoeste 0 924.5 -1.6 21
2019-10-12 15:00:00 26.8 20 Sudoeste 46 Sudoeste 0 924.9 -1.6 20
2019-10-12 14:00:00 26.8 17 Sudoeste 41 Sudoeste 0 925.4 -0.9 21
2019-10-12 13:00:00 24.6 9 Sur 39 Sudoeste 0 926.1 -0.1 29
2019-10-12 12:00:00 24 5 Sur 34 Sudoeste 0 926.5 0.3 33
2019-10-12 11:00:00 23.3 8 Sur 35 Sudoeste 0 926.3 0.5 31
2019-10-12 10:00:00 18.1 3 Sur 12 Sudoeste 0 926.2 0.2 48
2019-10-12 09:00:00 15.1 3 Sudeste 9 Noroeste 0 926.2 0.5 71
2019-10-12 08:00:00 15.1 5 Este 12 Este 0 925.8 0 73
2019-10-12 07:00:00 14.4 0 Calma 7 Oeste 0 926 -0.2 74
2019-10-12 06:00:00 15 3 Este 9 Este 0 925.7 -1.1 73
2019-10-12 05:00:00 15.1 4 Este 12 Sudeste 0 925.8 -1.2 73
2019-10-12 04:00:00 15.3 5 Este 11 Este 0 926.2 -1.2 72
2019-10-12 03:00:00 14.8 3 Sudeste 6 Sudeste 0 926.8 -0.6 72
2019-10-12 02:00:00 14.5 0 Calma 5 Este 0 927 -0.2 73
2019-10-12 01:00:00 14.8 4 Este 6 Sudeste 0 927.4 0.7 71
2019-10-12 00:00:00 17.9 0 Calma 13 Noroeste 0 927.4 1 60
2019-10-11 23:00:00 20.3 3 Sur 19 Sudoeste 0 927.2 0.8 51
2019-10-11 22:00:00 21.2 5 Sur 20 Sudoeste 0 926.7 0.7 50
2019-10-11 21:00:00 21.7 4 Sur 24 Sudoeste 0 926.4 0.3 48
2019-10-11 20:00:00 23.9 7 Sur 23 Sudoeste 0 926.4 -0.1 40
2019-10-11 19:00:00 25.6 3 Sudeste 11 Sudeste 0 926 -1.1 34
2019-10-11 18:00:00 25.9 4 Este 10 Sudeste 0 926.1 -1.8 32
2019-10-11 17:00:00 26 5 Este 18 Sudeste 0 926.5 -2.5 31
2019-10-11 16:00:00 26.2 3 Noroeste 19 Oeste 0 927.1 -2.9 31
2019-10-11 15:00:00 25.5 4 Noroeste 19 Sudoeste 0 927.9 -2.5 33
2019-10-11 14:00:00 23.9 3 Oeste 12 Sudoeste 0 929 -1.6 39
2019-10-11 13:00:00 21.3 5 Este 11 Sudeste 0 930 -0.4 46
2019-10-11 12:00:00 18.7 5 Este 14 Sudeste 0 930.4 0.5 56
2019-10-11 11:00:00 16.3 8 Este 18 Sudeste 0 930.6 0.9 61
2019-10-11 10:00:00 13.1 6 Sudeste 13 Sudeste 0 930.4 0.9 70
2019-10-11 09:00:00 8.8 4 Este 8 Este 0 929.9 0.5 82
2019-10-11 08:00:00 8.4 4 Sudeste 8 Este 0 929.7 0.4 83
2019-10-11 07:00:00 7.8 4 Sudeste 8 Sudeste 0 929.5 -0.2 84
2019-10-11 06:00:00 7.4 3 Este 7 Sudeste 0 929.4 -0.5 82
2019-10-11 05:00:00 7.3 3 Este 5 Sudeste 0 929.3 -0.5 82
2019-10-11 04:00:00 7.7 0 Calma 3 Sudoeste 0 929.7 -0.4 79
2019-10-11 03:00:00 8.6 0 Calma 6 Este 0 929.9 -0.1 77
2019-10-11 02:00:00 9.4 2 Sudeste 7 Este 0 929.8 0 77
2019-10-11 01:00:00 10.3 5 Este 9 Sudeste 0 930.1 0.7 74
2019-10-11 00:00:00 10.1 0 Calma 3 Este 0 930 1.1 70
2019-10-10 23:00:00 11.5 0 Calma 5 Sudeste 0 929.8 1.1 60
2019-10-10 22:00:00 13 3 Este 11 Sudoeste 0 929.4 0.8 58
2019-10-10 21:00:00 15.2 0 Calma 5 Sudoeste 0 928.9 0.3 52
2019-10-10 20:00:00 18.8 0 Calma 3 Sudoeste 0 928.7 0 45
2019-10-10 19:00:00 22.1 0 Calma 9 Sudoeste 0 928.6 -0.7 34
2019-10-10 18:00:00 22.4 2 Oeste 10 Sudeste 0 928.6 -1.3 30
2019-10-10 17:00:00 22.3 2 Nordeste 11 Noroeste 0 928.7 -1.9 28
2019-10-10 16:00:00 21.7 5 Norte 14 Este 0 929.3 -2 31
2019-10-10 15:00:00 20.5 5 Nordeste 17 Sudeste 0 929.9 -1.7 32
2019-10-10 14:00:00 18.9 6 Este 21 Este 0 930.6 -1.2 44
2019-10-10 13:00:00 16.9 9 Nordeste 21 Este 0 931.3 -0.3 49
2019-10-10 12:00:00 15.1 10 Este 35 Este 0 931.6 0.3 52
2019-10-10 11:00:00 13.3 14 Este 33 Este 0 931.8 0.8 57
2019-10-10 10:00:00 10.3 7 Este 18 Este 0 931.6 0.8 68
2019-10-10 09:00:00 7.1 6 Sudeste 14 Este 0 931.3 0.6 78
2019-10-10 08:00:00 7.6 6 Este 17 Este 0 931 0.3 78
2019-10-10 07:00:00 7.6 4 Nordeste 13 Nordeste 0 930.8 0.1 79
2019-10-10 06:00:00 8.3 7 Este 16 Este 0 930.7 -0.1 76
2019-10-10 05:00:00 8.4 6 Este 12 Nordeste 0 930.7 -0.3 78
2019-10-10 04:00:00 9.5 7 Este 15 Nordeste 0 930.7 -0.4 75
2019-10-10 03:00:00 6.3 0 Calma 3 Este 0 930.8 0 79
2019-10-10 02:00:00 7.6 3 Este 8 Sudeste 0 931 0.7 80
2019-10-10 01:00:00 7.4 0 Calma 5 Sudeste 0 931.1 1.1 78
2019-10-10 00:00:00 8.8 0 Calma 5 Sudoeste 0 930.8 1.2 72
2019-10-09 23:00:00 10.6 0 Calma 7 Oeste 0 930.3 1 67
2019-10-09 22:00:00 12.7 4 Oeste 10 Oeste 0 930 1.3 61
2019-10-09 21:00:00 14.7 4 Noroeste 17 Norte 0 929.6 1 54
2019-10-09 20:00:00 16.7 7 Noroeste 22 Noroeste 0 929.3 0.6 45
2019-10-09 19:00:00 18.4 9 Norte 22 Norte 0 928.7 -0.4 38
2019-10-09 18:00:00 19.2 8 Norte 20 Noroeste 0 928.6 -0.6 37
2019-10-09 17:00:00 19.8 10 Norte 23 Noroeste 0 928.7 -1 40
2019-10-09 16:00:00 20.2 5 Oeste 19 Norte 0 929.1 -0.9 38
2019-10-09 15:00:00 19.8 5 Oeste 23 Oeste 0 929.2 -1 40
2019-10-09 14:00:00 19.5 6 Oeste 22 Oeste 0 929.7 -0.6 45
2019-10-09 13:00:00 17.1 5 Oeste 19 Noroeste 0 930 0 59
2019-10-09 12:00:00 16.4 5 Noroeste 14 Noroeste 0 930.2 0.8 66
2019-10-09 11:00:00 14.6 3 Sudoeste 15 Norte 0 930.3 1.3 79
2019-10-09 10:00:00 13.3 3 Oeste 10 Oeste 0 930 1.1 85
2019-10-09 09:00:00 11 2 Oeste 9 Sudoeste 0 929.4 1 87
2019-10-09 08:00:00 11.1 2 Oeste 8 Sudoeste 0 929 1.7 87
2019-10-09 07:00:00 10 2 Oeste 5 Oeste 0 928.9 1.3 86
2019-10-09 06:00:00 9.5 0 Calma 8 Norte 0 928.4 0.5 83
2019-10-09 05:00:00 10.2 0 Calma 4 Oeste 0 927.3 -0.5 82
2019-10-09 04:00:00 11.2 0 Calma 8 Oeste 0 927.6 0 81
2019-10-09 03:00:00 11.1 2 Sudoeste 5 Sudoeste 0 927.9 0.4 78
2019-10-09 02:00:00 12 2 Oeste 11 Sudoeste 0 927.8 0.2 75
2019-10-09 01:00:00 12 5 Sudoeste 12 Sudoeste 0 927.6 0.3 76
2019-10-09 00:00:00 13.1 3 Sudoeste 8 Sudoeste 0 927.5 0.3 65
2019-10-08 23:00:00 14.5 0 Calma 4 Sudeste 0 927.6 0.7 62
2019-10-08 22:00:00 16.2 0 Calma 3 Sudoeste 0 927.3 0.7 60
2019-10-08 21:00:00 19.1 0 Calma 6 Oeste 0 927.2 0.6 42
2019-10-08 20:00:00 23.4 2 Oeste 11 Noroeste 0 926.9 0 33
2019-10-08 19:00:00 26.1 3 Oeste 20 Oeste 0 926.6 -0.6 26
2019-10-08 18:00:00 27.7 6 Oeste 23 Oeste 0 926.6 -1 23
2019-10-08 17:00:00 28.4 8 Oeste 24 Oeste 0 926.9 -1.4 22
2019-10-08 16:00:00 27.8 5 Oeste 23 Sudoeste 0 927.2 -2.1 22
2019-10-08 15:00:00 27 8 Sudoeste 24 Oeste 0 927.6 -2.2 24
2019-10-08 14:00:00 24.6 3 Oeste 12 Sudoeste 0 928.3 -1.7 28
2019-10-08 13:00:00 21.3 4 Sudoeste 10 Sudoeste 0 929.3 -0.7 40
2019-10-08 12:00:00 18.5 2 Nordeste 6 Este 0 929.8 -0.2 46
2019-10-08 11:00:00 16 3 Este 8 Este 0 930 0.1 48
2019-10-08 10:00:00 12.5 5 Sudeste 10 Sudeste 0 930 0.1 59
2019-10-08 09:00:00 6.9 3 Este 6 Este 0 930 0.3 80
2019-10-08 08:00:00 6.3 2 Este 5 Sudeste 0 929.9 0.1 78
2019-10-08 07:00:00 6.7 0 Calma -- -- 0 929.9 -0.2 77
2019-10-08 06:00:00 7.4 0 Calma -- -- 0 929.7 -0.9 74
2019-10-08 05:00:00 8.7 2 Este 8 Sudeste 0 929.8 -0.7 72
2019-10-08 04:00:00 8.9 2 Este 9 Este 0 930.1 -0.6 73
2019-10-08 03:00:00 9 0 Calma 6 Sudeste 0 930.6 -0.2 69
2019-10-08 02:00:00 9.8 4 Sudeste 6 Este 0 930.5 -0.2 71
2019-10-08 01:00:00 10 2 Este 5 Este 0 930.7 0.1 68
2019-10-08 00:00:00 10.8 0 Calma 6 Este 0 930.8 0.6 66
2019-10-07 23:00:00 11.8 0 Calma 3 Este 0 930.7 0.9 55
2019-10-07 22:00:00 13.7 3 Este 4 Este 0 930.6 1 54
2019-10-07 21:00:00 16.4 0 Calma 3 Sudoeste 0 930.2 0.5 46
2019-10-07 20:00:00 20.4 0 Calma 12 Noroeste 0 929.8 -0.2 38
2019-10-07 19:00:00 23.2 6 Noroeste 16 Norte 0 929.6 -0.6 25
2019-10-07 18:00:00 23.6 6 Noroeste 17 Noroeste 0 929.7 -0.8 25
2019-10-07 17:00:00 23.3 4 Noroeste 17 Noroeste 0 930 -1.1 25
2019-10-07 16:00:00 22.9 5 Noroeste 16 Noroeste 0 930.2 -1.3 25
2019-10-07 15:00:00 22.4 6 Noroeste 17 Noroeste 0 930.5 -1.3 25
2019-10-07 14:00:00 20.7 4 Nordeste 14 Noroeste 0 931.1 -0.9 24
2019-10-07 13:00:00 19.2 4 Noroeste 15 Sudoeste 0 931.5 -0.1 33
2019-10-07 12:00:00 17.8 4 Noroeste 13 Noroeste 0 931.8 0.5 41
2019-10-07 11:00:00 15.4 0 Calma 5 Este 0 932 0.8 55
2019-10-07 10:00:00 11.3 2 Este 4 Sudeste 0 931.6 0.8 73
2019-10-07 09:00:00 6 0 Calma 3 Este 0 931.3 0.8 83
2019-10-07 08:00:00 6 0 Calma 4 Sudeste 0 931.2 0.7 83
2019-10-07 07:00:00 6.3 0 Calma 3 Sudoeste 0 930.8 0.1 83
2019-10-07 06:00:00 6.8 0 Calma 4 Sudoeste 0 930.5 -0.8 82
2019-10-07 05:00:00 7.4 0 Calma 4 Oeste 0 930.5 -0.6 82
2019-10-07 04:00:00 8 0 Calma 4 Sudoeste 0 930.7 -0.5 80
2019-10-07 03:00:00 8.4 2 Sudoeste 4 Sudoeste 0 931.3 0.3 78
2019-10-07 02:00:00 8.9 0 Calma 5 Sudoeste 0 931.1 -0.1 76
2019-10-07 01:00:00 9.7 3 Sudoeste 5 Sudoeste 0 931.2 0.4 72
2019-10-07 00:00:00 10.7 3 Sudoeste 6 Sudoeste 0 931 0.9 68
2019-10-06 23:00:00 12 3 Sudoeste 7 Sudoeste 0 931.2 1.4 64
2019-10-06 22:00:00 13.6 2 Oeste 7 Sudoeste 0 930.8 1.1 58
2019-10-06 21:00:00 15.6 3 Sudoeste 7 Sudoeste 0 930.1 0.5 49
2019-10-06 20:00:00 20 2 Noroeste 15 Noroeste 0 929.8 0.3 36
2019-10-06 19:00:00 22 4 Oeste 19 Sudoeste 0 929.7 -0.4 32
2019-10-06 18:00:00 22.8 4 Sudoeste 17 Sudoeste 0 929.6 -0.8 33
2019-10-06 17:00:00 22.4 5 Oeste 19 Oeste 0 929.5 -1.7 33
2019-10-06 16:00:00 21.8 4 Oeste 18 Sudoeste 0 930.1 -1.5 33
2019-10-06 15:00:00 21 5 Oeste 14 Oeste 0 930.4 -1.2 39
2019-10-06 14:00:00 18.9 3 Sur 13 Oeste 0 931.2 -0.4 47
2019-10-06 13:00:00 17.2 4 Oeste 14 Oeste 0 931.6 0.6 52
2019-10-06 12:00:00 15.8 3 Sudoeste 11 Noroeste 0 931.6 0.9 56
2019-10-06 11:00:00 13.8 5 Norte 9 Noroeste 0 931.6 1.5 62
2019-10-06 10:00:00 9.9 0 Calma 5 Este 0 931 1.3 79
2019-10-06 09:00:00 5.6 0 Calma 2 Norte 0 930.7 1.2 83
2019-10-06 08:00:00 5.5 0 Calma 4 Sudeste 0 930.1 1.1 83
2019-10-06 07:00:00 5.7 2 Este 5 Sudeste 0 929.7 0.4 83
2019-10-06 06:00:00 6.1 0 Calma 4 Sudoeste 0 929.5 0.3 81
2019-10-06 05:00:00 6.9 0 Calma 4 Este 0 929 0.3 82
2019-10-06 04:00:00 7.3 3 Sudoeste 4 Sudoeste 0 929.3 0.1 77
2019-10-06 03:00:00 8.1 0 Calma 4 Sudeste 0 929.2 0.6 78
2019-10-06 02:00:00 8.8 2 Este 5 Sudeste 0 928.7 0.2 79
2019-10-06 01:00:00 9.7 0 Calma 3 Este 0 929.2 1 73
2019-10-06 00:00:00 10.9 0 Calma 3 Este 0 928.6 1.1 71
2019-10-05 23:00:00 12.2 0 Calma 3 Este 0 928.5 1.4 67
2019-10-05 22:00:00 13.8 0 Calma 5 Sudoeste 0 928.2 1.5 60
2019-10-05 21:00:00 16.7 3 Sudoeste 5 Sudoeste 0 927.5 1.2 49
2019-10-05 20:00:00 20.8 2 Oeste 12 Oeste 0 927.1 0.7 41
2019-10-05 19:00:00 22.9 3 Oeste 14 Oeste 0 926.7 0 34
2019-10-05 18:00:00 23.6 5 Oeste 21 Oeste 0 926.3 -0.9 31
2019-10-05 17:00:00 23.8 5 Oeste 22 Sudoeste 0 926.4 -1.4 33
2019-10-05 16:00:00 24 7 Sudoeste 22 Oeste 0 926.7 -1.3 32
2019-10-05 15:00:00 22.6 6 Sudoeste 19 Noroeste 0 927.2 -1 39
2019-10-05 14:00:00 21.3 4 Oeste 19 Sudoeste 0 927.8 -0.6 46
2019-10-05 13:00:00 19.3 5 Sudoeste 14 Sudoeste 0 928 -0.1 54
2019-10-05 12:00:00 17.3 3 Oeste 10 Sudoeste 0 928.2 0.5 59
2019-10-05 11:00:00 14.9 3 Este 9 Sudeste 0 928.4 1.1 63
2019-10-05 10:00:00 11.8 4 Sudeste 10 Este 0 928.1 0.9 72
2019-10-05 09:00:00 6.4 0 Calma 3 Este 0 927.7 0.4 84
2019-10-05 08:00:00 6.1 2 Sudeste 6 Sudeste 0 927.3 -0.1 84
2019-10-05 07:00:00 6.5 2 Nordeste 4 Este 0 927.2 -0.3 84
2019-10-05 06:00:00 6.7 0 Calma 3 Este 0 927.3 -0.3 82
2019-10-05 05:00:00 7.2 0 Calma 4 Sudoeste 0 927.4 -0.1 81
2019-10-05 04:00:00 8 0 Calma 4 Sudeste 0 927.5 -0.2 80
2019-10-05 03:00:00 8.7 0 Calma 4 Sudoeste 0 927.6 -0.1 80
2019-10-05 02:00:00 9.7 0 Calma 3 Nordeste 0 927.5 0 78
2019-10-05 01:00:00 10.8 0 Calma 5 Nordeste 0 927.7 0.3 78
2019-10-05 00:00:00 12 0 Calma 10 Nordeste 0 927.7 0.8 73
2019-10-04 23:00:00 13.2 0 Calma 3 Sudoeste 0 927.5 1 68
2019-10-04 22:00:00 15 0 Calma 5 Sudoeste 0 927.4 1.2 64
2019-10-04 21:00:00 17.8 3 Sudoeste 11 Oeste 0 926.9 0.9 55
2019-10-04 20:00:00 20.6 5 Sudoeste 13 Noroeste 0 926.5 0.2 47
2019-10-04 19:00:00 22.8 4 Oeste 18 Oeste 0 926.2 -0.7 40
2019-10-04 18:00:00 23.8 7 Oeste 27 Oeste 0 926 -1.6 36
2019-10-04 17:00:00 23.8 7 Oeste 23 Oeste 0 926.3 -2 37
2019-10-04 16:00:00 23.3 6 Oeste 23 Sudoeste 0 926.9 -1.8 38
2019-10-04 15:00:00 22.9 6 Sudoeste 25 Oeste 0 927.6 -1.4 41
2019-10-04 14:00:00 21.1 8 Oeste 22 Noroeste 0 928.3 -1 49
2019-10-04 13:00:00 19.4 4 Sudoeste 17 Sudoeste 0 928.7 -0.6 56
2019-10-04 12:00:00 17.8 3 Sudoeste 17 Oeste 0 929 -0.1 59
2019-10-04 11:00:00 14.6 4 Este 10 Este 0 929.3 0.5 57
2019-10-04 10:00:00 10.8 5 Este 11 Este 0 929.3 0.5 65
2019-10-04 09:00:00 6.6 5 Este 12 Sudeste 0 929.1 0.5 80
2019-10-04 08:00:00 6 3 Este 6 Este 0 928.8 -0.2 83
2019-10-04 07:00:00 6.3 2 Este 6 Sudeste 0 928.8 -0.2 81
2019-10-04 06:00:00 7 3 Este 12 Este 0 928.6 -0.8 79
2019-10-04 05:00:00 7.1 3 Este 7 Este 0 929 -0.6 79
2019-10-04 04:00:00 7.4 2 Sudeste 6 Sudeste 0 929 -0.5 78
2019-10-04 03:00:00 7.4 0 Calma 4 Este 0 929.4 -0.1 78
2019-10-04 02:00:00 8.3 0 Calma 7 Este 0 929.6 0.2 77
2019-10-04 01:00:00 9.2 4 Este 7 Este 0 929.5 0.4 73
2019-10-04 00:00:00 9.9 3 Este 5 Este 0 929.5 0.7 70
2019-10-03 23:00:00 11.3 0 Calma 7 Sudeste 0 929.4 1 66
2019-10-03 22:00:00 12.9 2 Este 5 Este 0 929.1 0.7 58
2019-10-03 21:00:00 15.6 0 Calma 8 Sudoeste 0 928.8 0.2 55
2019-10-03 20:00:00 19.2 0 Calma 13 Oeste 0 928.4 -0.4 46
2019-10-03 19:00:00 22.2 3 Oeste 15 Sudoeste 0 928.4 -0.6 29
2019-10-03 18:00:00 22.5 5 Oeste 23 Oeste 0 928.6 -0.6 27
2019-10-03 17:00:00 22.7 6 Sudoeste 25 Oeste 0 928.8 -0.8 27
2019-10-03 16:00:00 22.3 5 Oeste 27 Noroeste 0 929 -1 29
2019-10-03 15:00:00 21.8 7 Oeste 30 Oeste 0 929.2 -1.5 29
2019-10-03 14:00:00 20.3 6 Oeste 21 Sudoeste 0 929.6 -1.3 35
2019-10-03 13:00:00 17.5 4 Oeste 14 Sudoeste 0 930 -0.7 47
2019-10-03 12:00:00 15.6 5 Sudoeste 12 Oeste 0 930.7 0.2 53
2019-10-03 11:00:00 13 3 Nordeste 6 Noroeste 0 930.9 1 64
2019-10-03 10:00:00 8.9 3 Sudeste 6 Sudeste 0 930.7 1.2 75
2019-10-03 09:00:00 5.1 0 Calma 3 Sudoeste 0 930.5 0.9 85
2019-10-03 08:00:00 4.7 0 Calma 4 Sudeste 0 929.9 0.3 85
2019-10-03 07:00:00 4.9 0 Calma 2 Sudoeste 0 929.5 -0.2 84
2019-10-03 06:00:00 5.4 0 Calma 3 Este 0 929.6 -0.5 84
2019-10-03 05:00:00 5.6 0 Calma 3 Este 0 929.6 -0.7 82
2019-10-03 04:00:00 6 2 Este 5 Este 0 929.7 -1.1 82
2019-10-03 03:00:00 6.2 0 Calma 3 Sudoeste 0 930.1 -0.8 80
2019-10-03 02:00:00 6.7 0 Calma 5 Sudoeste 0 930.3 -0.6 80
2019-10-03 01:00:00 7.3 2 Sudoeste 5 Sudoeste 0 930.8 0.3 78
2019-10-03 00:00:00 8.7 4 Sudoeste 7 Sudoeste 0 930.9 0.8 72
2019-10-02 23:00:00 10.2 2 Sudoeste 8 Nordeste 0 930.9 1.1 63
2019-10-02 22:00:00 12.5 3 Este 8 Norte 0 930.5 1.2 59
2019-10-02 21:00:00 15.1 2 Este 8 Nordeste 0 930.1 1.1 49
2019-10-02 20:00:00 16.7 4 Nordeste 17 Nordeste 0 929.8 0.8 42
2019-10-02 19:00:00 18.2 6 Norte 21 Norte 0 929.3 0 37
2019-10-02 18:00:00 18.7 8 Norte 21 Norte 0 929 -0.3 37
2019-10-02 17:00:00 18.7 11 Noroeste 26 Noroeste 0 929 -0.6 38
2019-10-02 16:00:00 18.5 5 Noroeste 25 Noroeste 0 929.3 -0.6 36
2019-10-02 15:00:00 18.2 6 Noroeste 25 Noroeste 0 929.3 -0.7 39
2019-10-02 14:00:00 17.1 4 Oeste 17 Noroeste 0 929.6 -0.1 47
2019-10-02 13:00:00 15.8 6 Sudoeste 19 Oeste 0 929.9 0.9 54
2019-10-02 12:00:00 14.5 7 Sudoeste 21 Oeste 0 930 1.5 58
2019-10-02 11:00:00 13.9 8 Sudoeste 21 Sudoeste 0 929.7 1.3 60
2019-10-02 10:00:00 12.4 10 Sudoeste 23 Sudoeste 0 929 1.2 65
2019-10-02 09:00:00 9.2 6 Sudoeste 17 Sudoeste 0 928.5 1.2 79
2019-10-02 08:00:00 8.3 3 Oeste 10 Oeste 0 928.4 1.2 83
2019-10-02 07:00:00 8.6 3 Sudoeste 18 Oeste 0 927.8 0.5 81
2019-10-02 06:00:00 10.5 4 Sudoeste 14 Oeste 0 927.3 0 74
2019-10-02 05:00:00 11.6 5 Sudoeste 21 Oeste 0 927.2 0.2 66
2019-10-02 04:00:00 11.7 5 Sudoeste 14 Oeste 0 927.3 0.2 66
2019-10-02 03:00:00 11.7 3 Sudoeste 13 Oeste 0 927.3 0.4 65
2019-10-02 02:00:00 12.7 4 Sudoeste 17 Oeste 0 927 0.7 62
2019-10-02 01:00:00 12.6 5 Sudoeste 14 Oeste 0 927.1 1.7 63
2019-10-02 00:00:00 14.6 3 Sudoeste 14 Oeste 0 926.9 2.2 63
2019-10-01 23:00:00 16.5 4 Oeste 18 Oeste 0 926.3 1.7 47
2019-10-01 22:00:00 18.2 8 Sudoeste 25 Oeste 0 925.4 0.8 42
2019-10-01 21:00:00 18.9 8 Sudoeste 28 Sudoeste 0 924.7 0.4 41
2019-10-01 20:00:00 20.5 9 Sudoeste 28 Oeste 0 924.6 0.1 38
2019-10-01 19:00:00 22.5 8 Oeste 33 Oeste 0 924.6 -0.2 34
2019-10-01 18:00:00 22.9 9 Oeste 27 Oeste 0 924.3 -1.1 33
2019-10-01 17:00:00 22.6 7 Oeste 25 Noroeste 0 924.5 -1.4 34
2019-10-01 16:00:00 22.9 8 Oeste 29 Sudoeste 0 924.8 -1.2 37
2019-10-01 15:00:00 22 8 Oeste 31 Sudoeste 0 925.4 -1.2 41
2019-10-01 14:00:00 20.9 12 Oeste 34 Oeste 0 925.9 -0.4 44
2019-10-01 13:00:00 20.2 13 Sudoeste 35 Oeste 0 926 0.4 48
2019-10-01 12:00:00 18.6 9 Sudoeste 28 Sudoeste 0 926.6 1.4 58
2019-10-01 11:00:00 17.6 11 Sudoeste 27 Oeste 0 926.3 1.6 60
2019-10-01 10:00:00 14.8 0 Calma 6 Este 0 925.6 1.1 62
2019-10-01 09:00:00 8.9 0 Calma 7 Sudeste 0 925.2 0.9 80
2019-10-01 08:00:00 8.8 4 Este 7 Sudeste 0 924.7 0.3 79
2019-10-01 07:00:00 9.7 0 Calma 8 Este 0 924.5 -0.5 79
2019-10-01 06:00:00 10.1 4 Este 8 Sudeste 0 924.3 -1.3 78
2019-10-01 05:00:00 9.9 4 Este 8 Sudeste 0 924.4 -1.4 79
2019-10-01 04:00:00 9.8 0 Calma 5 Este 0 925 -0.8 77
2019-10-01 03:00:00 10.4 2 Este 5 Este 0 925.6 -0.4 77
2019-10-01 02:00:00 11.5 2 Este 6 Este 0 925.8 0 73
2019-10-01 01:00:00 12.2 0 Calma 9 Sudoeste 0 925.8 0 73
2019-10-01 00:00:00 13.1 4 Este 8 Este 0 926 0.5 69
2019-09-30 23:00:00 14.2 3 Este 6 Este 0 925.8 0.4 61
2019-09-30 22:00:00 15.9 0 Calma 4 Sudeste 0 925.8 0.4 52
2019-09-30 21:00:00 18.5 0 Calma 4 Sudoeste 0 925.5 -0.1 48
2019-09-30 20:00:00 22.8 0 Calma 12 Noroeste 0 925.4 -0.9 38
2019-09-30 19:00:00 25.5 4 Oeste 17 Sudoeste 0 925.4 -1.5 27
2019-09-30 18:00:00 25.8 4 Oeste 18 Oeste 0 925.6 -1.9 27
2019-09-30 17:00:00 25.9 4 Oeste 18 Norte 0 926.3 -2.1 28
2019-09-30 16:00:00 26 6 Oeste 17 Sudoeste 0 926.9 -2.2 27
2019-09-30 15:00:00 25.1 5 Sudoeste 18 Oeste 0 927.5 -2 31
2019-09-30 14:00:00 22.9 2 Sudoeste 10 Oeste 0 928.4 -1.3 42
2019-09-30 13:00:00 20.5 0 Calma 10 Este 0 929.1 -0.5 52
2019-09-30 12:00:00 19.5 4 Este 9 Sudeste 0 929.5 0 50
2019-09-30 11:00:00 17.3 4 Este 11 Sudeste 0 929.7 0.5 53
2019-09-30 10:00:00 14.2 7 Este 12 Sudeste 0 929.6 0.6 60
2019-09-30 09:00:00 9.2 4 Sudeste 8 Sudeste 0 929.5 0.7 76
2019-09-30 08:00:00 7.9 0 Calma 4 Sudeste 0 929.2 0.2 78
2019-09-30 07:00:00 8.6 0 Calma 8 Sudeste 0 929 -0.3 75
2019-09-30 06:00:00 9 3 Este 5 Este 0 928.8 -0.8 75
2019-09-30 05:00:00 9.5 2 Este 5 Este 0 929 -0.6 73
2019-09-30 04:00:00 9.7 2 Este 5 Este 0 929.3 -0.2 70
2019-09-30 03:00:00 10 0 Calma 4 Este 0 929.6 0.3 70
2019-09-30 02:00:00 10.5 2 Este 4 Este 0 929.6 0.5 68
2019-09-30 01:00:00 11.3 0 Calma 5 Este 0 929.5 0.7 66
2019-09-30 00:00:00 12 3 Este 7 Sudeste 0 929.3 1.2 63
2019-09-29 23:00:00 13.4 0 Calma 4 Este 0 929.1 1.5 59
2019-09-29 22:00:00 15.2 2 Este 4 Sudeste 0 928.8 1.2 56
2019-09-29 21:00:00 18.1 0 Calma 3 Sudoeste 0 928.1 0.3 43
2019-09-29 20:00:00 22.8 0 Calma 13 Sudoeste 0 927.6 -0.5 30
2019-09-29 19:00:00 26.1 4 Oeste 23 Sudoeste 0 927.6 -0.9 18
2019-09-29 18:00:00 26.7 8 Sudoeste 26 Sudoeste 0 927.8 -1.3 14
2019-09-29 17:00:00 26.8 10 Sudoeste 27 Sudoeste 0 928.1 -1.6 14
2019-09-29 16:00:00 26.8 7 Oeste 28 Oeste 0 928.5 -1.5 17
2019-09-29 15:00:00 26 9 Oeste 29 Sudoeste 0 929.1 -1.1 22
2019-09-29 14:00:00 24.4 7 Sudoeste 29 Sudoeste 0 929.7 -0.3 26
2019-09-29 13:00:00 21.4 6 Sudoeste 18 Sudoeste 0 930 0.5 33
2019-09-29 12:00:00 19.1 2 Sudoeste 8 Sudoeste 0 930.2 0.9 39
2019-09-29 11:00:00 15.8 3 Sudeste 10 Este 0 930 1 52
2019-09-29 10:00:00 12.1 5 Sudeste 12 Este 0 929.5 0.6 63
2019-09-29 09:00:00 7.9 5 Sudeste 11 Este 0 929.3 0.6 81
2019-09-29 08:00:00 6.7 4 Este 12 Sudeste 0 929 0 83
2019-09-29 07:00:00 6.7 2 Este 5 Sudeste 0 928.9 -0.4 83
2019-09-29 06:00:00 7.3 4 Este 8 Este 0 928.7 -0.7 82
2019-09-29 05:00:00 7.4 0 Calma 4 Sudeste 0 929 -0.4 80
2019-09-29 04:00:00 8.2 0 Calma 6 Sudeste 0 929.3 -0.2 77
2019-09-29 03:00:00 9.4 2 Este 5 Este 0 929.4 -0.4 75
2019-09-29 02:00:00 10.1 3 Este 9 Este 0 929.4 -0.3 75
2019-09-29 01:00:00 10.6 4 Este 8 Este 0 929.5 0.2 74
2019-09-29 00:00:00 10.7 2 Este 5 Este 0 929.8 1 73
2019-09-28 23:00:00 12.2 2 Este 6 Este 0 929.7 1 69
2019-09-28 22:00:00 14.2 0 Calma 6 Este 0 929.3 0.5 60
2019-09-28 21:00:00 17.1 0 Calma 4 Sudoeste 0 928.8 -0.1 48
2019-09-28 20:00:00 21 0 Calma 5 Noroeste 0 928.7 -0.6 44
2019-09-28 19:00:00 23.3 4 Norte 11 Noroeste 0 928.8 -1.1 28
2019-09-28 18:00:00 24.5 3 Oeste 15 Oeste 0 928.9 -1.5 27
2019-09-28 17:00:00 23.8 6 Noroeste 17 Oeste 0 929.3 -1.8 29
2019-09-28 16:00:00 23.9 4 Oeste 17 Noroeste 0 929.9 -1.7 32
2019-09-28 15:00:00 23.2 5 Oeste 17 Sudoeste 0 930.4 -1.6 37
2019-09-28 14:00:00 20.9 4 Noroeste 13 Nordeste 0 931.1 -1 44
2019-09-28 13:00:00 19 3 Este 8 Sudeste 0 931.6 -0.1 52
2019-09-28 12:00:00 18 3 Este 11 Sudeste 0 932 0.6 53
2019-09-28 11:00:00 15.5 4 Este 10 Sudeste 0 932.1 1.1 60
2019-09-28 10:00:00 12.3 4 Este 8 Sudeste 0 931.7 0.8 68
2019-09-28 09:00:00 8.8 3 Este 6 Sudeste 0 931.4 0.4 80
2019-09-28 08:00:00 7.5 3 Este 7 Sudeste 0 931 0.1 83
2019-09-28 07:00:00 8.1 3 Este 5 Sudeste 0 930.9 -0.1 83
2019-09-28 06:00:00 8.1 3 Este 5 Este 0 931 -0.2 83
2019-09-28 05:00:00 8.1 0 Calma 3 Sudeste 0 930.9 -0.1 81
2019-09-28 04:00:00 8.6 0 Calma 3 Este 0 931 0.1 81
2019-09-28 03:00:00 9.2 0 Calma 9 Sudoeste 0 931.2 0.5 76
2019-09-28 02:00:00 9.7 2 Sudeste 5 Este 0 931 0.8 73
2019-09-28 01:00:00 10.3 0 Calma 3 Oeste 0 930.9 1.1 74
2019-09-28 00:00:00 11.4 0 Calma 4 Sudeste 0 930.7 1.3 65
2019-09-27 23:00:00 12.5 0 Calma 4 Este 0 930.2 1 62
2019-09-27 22:00:00 14 0 Calma 5 Sudoeste 0 929.8 0.7 60
2019-09-27 21:00:00 17.2 2 Sudoeste 5 Sudoeste 0 929.4 0.5 47
2019-09-27 20:00:00 21.4 0 Calma 10 Oeste 0 929.2 0.2 31
2019-09-27 19:00:00 23.7 4 Oeste 23 Oeste 0 929.1 -0.3 20
2019-09-27 18:00:00 24.4 8 Oeste 23 Oeste 0 928.9 -0.9 15
2019-09-27 17:00:00 24.6 8 Sudoeste 27 Oeste 0 929 -1.4 18
2019-09-27 16:00:00 23.9 8 Oeste 24 Oeste 0 929.4 -1.3 22
2019-09-27 15:00:00 22.4 8 Noroeste 26 Sudoeste 0 929.8 -1.4 26
2019-09-27 14:00:00 21.9 7 Sudoeste 23 Sudoeste 0 930.4 -0.9 29
2019-09-27 13:00:00 19 5 Sudoeste 19 Sudoeste 0 930.7 -0.1 41
2019-09-27 12:00:00 18 7 Sudoeste 16 Sudoeste 0 931.2 0.5 46
2019-09-27 11:00:00 16 2 Noroeste 8 Noroeste 0 931.3 1 56
2019-09-27 10:00:00 12 4 Este 12 Sudeste 0 930.8 0.6 66
2019-09-27 09:00:00 7.9 2 Este 6 Este 0 930.7 0.5 82
2019-09-27 08:00:00 5.3 0 Calma 4 Sudeste 0 930.3 0.3 83
2019-09-27 07:00:00 5.8 0 Calma 4 Sudeste 0 930.2 0.1 82
2019-09-27 06:00:00 6.4 3 Este 5 Sudeste 0 930.2 -0.1 81
2019-09-27 05:00:00 6.7 2 Este 4 Sudeste 0 930 -0.1 80
2019-09-27 04:00:00 7.5 0 Calma 3 Sudoeste 0 930.1 0 79
2019-09-27 03:00:00 8.5 0 Calma 5 Norte 0 930.3 0.3 77
2019-09-27 02:00:00 9.7 3 Este 6 Este 0 930.1 0.2 72
2019-09-27 01:00:00 10.2 0 Calma 4 Este 0 930.1 0.6 73
2019-09-27 00:00:00 11.5 0 Calma 6 Este 0 930 1.1 69
2019-09-26 23:00:00 12.7 2 Este 4 Este 0 929.9 1.3 66
2019-09-26 22:00:00 14.8 2 Este 3 Este 0 929.5 1.1 59
2019-09-26 21:00:00 17.5 0 Calma 4 Sudoeste 0 928.9 0.6 46
2019-09-26 20:00:00 21.8 0 Calma 11 Oeste 0 928.6 0.1 33
2019-09-26 19:00:00 23.9 4 Oeste 23 Oeste 0 928.4 -0.5 21
2019-09-26 18:00:00 24.5 6 Oeste 24 Oeste 0 928.3 -0.7 22
2019-09-26 17:00:00 25.2 8 Oeste 24 Oeste 0 928.5 -1 26
2019-09-26 16:00:00 25.1 6 Sudoeste 30 Oeste 0 928.9 -1 30
2019-09-26 15:00:00 23.4 7 Oeste 19 Oeste 0 929 -1.5 37
2019-09-26 14:00:00 21.6 4 Oeste 19 Sudoeste 0 929.5 -1.1 42
2019-09-26 13:00:00 19.6 3 Sudoeste 14 Noroeste 0 929.9 -0.5 50
2019-09-26 12:00:00 19.1 2 Sudoeste 8 Sudoeste 0 930.5 0.4 52
2019-09-26 11:00:00 16.3 0 Calma 7 Este 0 930.6 0.9 58
2019-09-26 10:00:00 13.6 4 Sudeste 8 Sudeste 0 930.4 0.9 67
2019-09-26 09:00:00 10.1 2 Este 7 Sudeste 0 930.1 0.5 81
2019-09-26 08:00:00 8.5 2 Este 8 Sudeste 0 929.7 0.1 84
2019-09-26 07:00:00 8.6 3 Este 7 Sudeste 0 929.5 0 84
2019-09-26 06:00:00 8.9 0 Calma 5 Este 0 929.6 -0.1 84
2019-09-26 05:00:00 8.9 3 Este 5 Sudeste 0 929.6 0.1 83
2019-09-26 04:00:00 9.2 0 Calma 4 Este 0 929.5 -0.1 82
2019-09-26 03:00:00 9.5 0 Calma 4 Este 0 929.7 0.2 81
2019-09-26 02:00:00 10 0 Calma 4 Este 0 929.5 0.1 79
2019-09-26 01:00:00 10.9 0 Calma 4 Este 0 929.6 0.6 78
2019-09-26 00:00:00 11.7 0 Calma 6 Este 0 929.5 0.7 75
2019-09-25 23:00:00 12.6 2 Este 5 Sudoeste 0 929.4 0.9 71
2019-09-25 22:00:00 14.1 0 Calma 4 Sudoeste 0 929 0.6 65
2019-09-25 21:00:00 16.1 2 Sudoeste 6 Oeste 0 928.8 0.4 58
2019-09-25 20:00:00 18.4 3 Oeste 14 Oeste 0 928.5 0 46
2019-09-25 19:00:00 19.7 3 Oeste 18 Oeste 0 928.4 -0.5 41
2019-09-25 18:00:00 20.1 5 Sudoeste 17 Oeste 0 928.4 -0.9 40
2019-09-25 17:00:00 20.2 4 Sudoeste 20 Oeste 0 928.5 -1.3 41
2019-09-25 16:00:00 19.6 4 Oeste 21 Oeste 0 928.9 -1.2 41
2019-09-25 15:00:00 18.9 7 Sudoeste 23 Sudoeste 0 929.3 -1.1 44
2019-09-25 14:00:00 17.3 5 Sudoeste 17 Sudoeste 0 929.8 -0.3 47
2019-09-25 13:00:00 16.1 5 Oeste 19 Oeste 0 930.1 0.7 55
2019-09-25 12:00:00 15.7 6 Oeste 21 Oeste 0 930.4 1.2 57
2019-09-25 11:00:00 15 6 Oeste 23 Oeste 0 930.1 1.4 59
2019-09-25 10:00:00 13.3 8 Sudoeste 22 Sudoeste 0 929.4 0.7 67
2019-09-25 09:00:00 10.5 2 Oeste 9 Oeste 0 929.2 0.6 79
2019-09-25 08:00:00 9.2 2 Oeste 9 Oeste 0 928.7 0.4 82
2019-09-25 07:00:00 9.5 2 Noroeste 8 Oeste 0 928.7 0.3 80
2019-09-25 06:00:00 10.3 2 Sudoeste 8 Oeste 0 928.6 0 78
2019-09-25 05:00:00 11.5 4 Sudoeste 12 Oeste 0 928.3 0 74
2019-09-25 04:00:00 12.8 2 Sudoeste 12 Oeste 0 928.4 0.2 68
2019-09-25 03:00:00 14.5 4 Oeste 22 Oeste 0 928.6 0.5 63
2019-09-25 02:00:00 15.6 6 Oeste 19 Oeste 0 928.3 0.3 60
2019-09-25 01:00:00 16.3 6 Sudoeste 25 Oeste 0 928.2 0.4 59
2019-09-25 00:00:00 17.1 5 Sudoeste 23 Oeste 0 928.1 0.8 58
2019-09-24 23:00:00 17.5 5 Sudoeste 16 Sudoeste 0 928 0.7 73
2019-09-24 22:00:00 17.6 8 Sudoeste 20 Sudoeste 0 927.8 0.8 72
2019-09-24 21:00:00 18.2 9 Sudoeste 19 Sudoeste 0 927.3 0.1 66
2019-09-24 20:00:00 20 9 Sudoeste 30 Sudoeste 0 927.3 -0.2 60
2019-09-24 19:00:00 21.5 9 Sudoeste 32 Sudoeste 0 927 -1 51
2019-09-24 18:00:00 21.3 10 Sudoeste 33 Oeste 0 927.2 -1 54
2019-09-24 17:00:00 21 9 Sudoeste 28 Oeste 0 927.5 -1.2 55
2019-09-24 16:00:00 20.5 6 Sudoeste 32 Oeste 0 928 -1.4 56
2019-09-24 15:00:00 21.5 10 Oeste 36 Oeste 0 928.2 -1.6 51
2019-09-24 14:00:00 20.9 15 Sudoeste 43 Sudoeste 0 928.7 -1.3 51
2019-09-24 13:00:00 19.3 14 Sudoeste 36 Sudoeste 0 929.4 -0.2 54
2019-09-24 12:00:00 17.3 8 Sudoeste 26 Sudoeste 0 929.8 0.6 60
2019-09-24 11:00:00 15.5 7 Sudoeste 18 Sudoeste 0 930 0.9 64
2019-09-24 10:00:00 15.9 6 Sudoeste 17 Sudoeste 0 929.6 0.7 61
2019-09-24 09:00:00 10.7 2 Nordeste 6 Oeste 0 929.2 0.3 85
2019-09-24 08:00:00 7.9 2 Norte 4 Norte 0 929.1 0.1 85
2019-09-24 07:00:00 8.4 0 Calma 8 Sudoeste 0 928.9 -0.1 85
2019-09-24 06:00:00 8.7 0 Calma 5 Sudoeste 0 928.9 -0.6 84
2019-09-24 05:00:00 9.2 0 Calma 3 Este 0 929 -0.8 83
2019-09-24 04:00:00 9.7 0 Calma 3 Norte 0 929 -1 83
2019-09-24 03:00:00 10.1 0 Calma 4 Norte 0 929.5 -0.4 82
2019-09-24 02:00:00 10.8 3 Este 6 Este 0 929.8 -0.5 80
2019-09-24 01:00:00 11.4 0 Calma 6 Norte 0 930 -0.3 79
2019-09-24 00:00:00 12.1 0 Calma 6 Este 0 929.9 0 77
2019-09-23 23:00:00 13 2 Este 6 Este 0 930.3 0.8 71
2019-09-23 22:00:00 14.5 0 Calma 6 Sudoeste 0 930.3 0.9 70
2019-09-23 21:00:00 16.7 0 Calma 3 Noroeste 0 929.9 0.4 64
2019-09-23 20:00:00 19.4 2 Noroeste 16 Oeste 0 929.5 -0.3 45
2019-09-23 19:00:00 20.9 4 Oeste 22 Oeste 0 929.4 -0.5 40
2019-09-23 18:00:00 21.2 8 Sudoeste 24 Sudoeste 0 929.5 -0.6 39
2019-09-23 17:00:00 21.2 7 Sudoeste 24 Oeste 0 929.8 -0.7 36
2019-09-23 16:00:00 20.6 6 Sudoeste 21 Oeste 0 929.9 -1 41
2019-09-23 15:00:00 19.8 6 Sudoeste 22 Sudoeste 0 930.1 -1.3 43
2019-09-23 14:00:00 18.7 7 Sudoeste 21 Sudoeste 0 930.5 -0.3 48
2019-09-23 13:00:00 16.4 3 Oeste 12 Sudoeste 0 930.9 0.2 60
2019-09-23 12:00:00 14.4 2 Noroeste 8 Norte 0 931.4 0.6 68
2019-09-23 11:00:00 12.7 4 Este 9 Sudeste 0 930.8 0.4 71
2019-09-23 10:00:00 11.3 3 Este 6 Sudeste 0 930.7 0.8 77
2019-09-23 09:00:00 7.9 3 Sudeste 7 Sudeste 0 930.8 1.5 85
2019-09-23 08:00:00 6.8 2 Este 5 Nordeste 0 930.4 1.2 85
2019-09-23 07:00:00 7 0 Calma 5 Este 0 929.9 1 85
2019-09-23 06:00:00 7.2 2 Este 4 Este 0 929.3 0.4 85
2019-09-23 05:00:00 7.4 0 Calma 4 Este 0 929.2 0.3 85
2019-09-23 04:00:00 7.8 0 Calma 2 Sudeste 0 928.9 0.5 84
2019-09-23 03:00:00 8.5 0 Calma 3 Este 0 928.9 0.6 83
2019-09-23 02:00:00 8.9 0 Calma 4 Este 0 928.9 0.8 82
2019-09-23 01:00:00 9.6 0 Calma 4 Este 0 928.4 0.8 81
2019-09-23 00:00:00 10.5 0 Calma 6 Sudoeste 0 928.3 1.6 80
2019-09-22 23:00:00 11.7 0 Calma 3 Este 0 928.1 1.7 77
2019-09-22 22:00:00 12.9 0 Calma 5 Sudoeste 0 927.6 1.5 72
2019-09-22 21:00:00 14.9 0 Calma 11 Oeste 0 926.7 0.9 59
2019-09-22 20:00:00 17.4 3 Oeste 17 Oeste 0 926.4 0.7 47
2019-09-22 19:00:00 18.3 3 Oeste 22 Oeste 0 926.1 0.3 44
2019-09-22 18:00:00 19.3 9 Oeste 27 Oeste 0 925.8 0.1 38
2019-09-22 17:00:00 18.9 5 Oeste 26 Oeste 0 925.7 -0.2 48
2019-09-22 16:00:00 18.7 5 Oeste 25 Sudoeste 0 925.8 0 49
2019-09-22 15:00:00 18.6 8 Oeste 24 Oeste 0 925.7 0.1 47
2019-09-22 14:00:00 17.6 9 Sudoeste 26 Oeste 0 925.9 0.5 55
2019-09-22 13:00:00 17.4 11 Sudoeste 31 Sudoeste 0 925.8 0.5 55
2019-09-22 12:00:00 16.5 12 Sudoeste 27 Oeste 0 925.6 1 59
2019-09-22 11:00:00 15.6 8 Sudoeste 26 Sudoeste 0 925.4 1.4 64
2019-09-22 10:00:00 14 9 Sudoeste 20 Sudoeste 0 925.3 1.9 76
2019-09-22 09:00:00 12.2 6 Sudoeste 20 Sudoeste 0 924.6 1.6 82
2019-09-22 08:00:00 11.9 7 Sudoeste 23 Sudoeste 0 924 1.5 84
2019-09-22 07:00:00 11.9 7 Sudoeste 19 Sudoeste 0.4 923.4 2 85
2019-09-22 06:00:00 12.2 5 Sudoeste 27 Oeste 0.8 923 2 84
2019-09-22 05:00:00 13.3 6 Oeste 37 Sudoeste 0.2 922.5 1.3 83
2019-09-22 04:00:00 16 2 Sudoeste 9 Sudoeste 0.4 921.4 -0.1 80
2019-09-22 03:00:00 16.6 2 Este 8 Este 0 921 -0.7 75
2019-09-22 02:00:00 16.7 2 Sudeste 7 Sudeste 0 921.2 -0.7 72
2019-09-22 01:00:00 16.7 0 Calma 8 Sudoeste 0 921.5 -0.5 69
2019-09-22 00:00:00 16.8 0 Calma 15 Sudoeste 0 921.7 0 66